sensor_id;sensor_type;location;lat;lon;timestamp;temperature;humidity
16271;DHT22;8243;49.048;8.396;2024-01-30T00:01:14;1.30;99.90
16271;DHT22;8243;49.048;8.396;2024-01-30T00:03:39;1.30;99.90
16271;DHT22;8243;49.048;8.396;2024-01-30T00:06:05;1.40;99.90
16271;DHT22;8243;49.048;8.396;2024-01-30T00:08:30;1.30;99.90
16271;DHT22;8243;49.048;8.396;2024-01-30T00:11:08;1.00;99.90
16271;DHT22;8243;49.048;8.396;2024-01-30T00:13:34;1.00;99.90
16271;DHT22;8243;49.048;8.396;2024-01-30T00:15:59;0.80;99.90
16271;DHT22;8243;49.048;8.396;2024-01-30T00:18:25;1.00;99.90
16271;DHT22;8243;49.048;8.396;2024-01-30T00:20:50;1.00;99.90
16271;DHT22;8243;49.048;8.396;2024-01-30T00:23:16;0.80;99.90
16271;DHT22;8243;49.048;8.396;2024-01-30T00:25:41;0.90;99.90
16271;DHT22;8243;49.048;8.396;2024-01-30T00:28:07;1.10;99.90
16271;DHT22;8243;49.048;8.396;2024-01-30T00:30:32;1.20;99.90
16271;DHT22;8243;49.048;8.396;2024-01-30T00:32:58;0.90;99.90
16271;DHT22;8243;49.048;8.396;2024-01-30T00:35:24;0.90;99.90
16271;DHT22;8243;49.048;8.396;2024-01-30T00:37:50;1.00;99.90
16271;DHT22;8243;49.048;8.396;2024-01-30T00:40:16;0.90;99.90
16271;DHT22;8243;49.048;8.396;2024-01-30T00:42:43;1.10;99.90
16271;DHT22;8243;49.048;8.396;2024-01-30T00:45:13;1.10;99.90
16271;DHT22;8243;49.048;8.396;2024-01-30T00:47:39;1.00;99.90
16271;DHT22;8243;49.048;8.396;2024-01-30T00:50:05;1.00;99.90
16271;DHT22;8243;49.048;8.396;2024-01-30T00:52:30;0.90;99.90
16271;DHT22;8243;49.048;8.396;2024-01-30T00:54:57;1.00;99.90
16271;DHT22;8243;49.048;8.396;2024-01-30T00:57:23;0.90;99.90
16271;DHT22;8243;49.048;8.396;2024-01-30T00:59:50;0.60;99.90
16271;DHT22;8243;49.048;8.396;2024-01-30T01:02:16;0.90;99.90
16271;DHT22;8243;49.048;8.396;2024-01-30T01:04:43;0.70;99.90
16271;DHT22;8243;49.048;8.396;2024-01-30T01:07:09;0.70;99.90
16271;DHT22;8243;49.048;8.396;2024-01-30T01:09:35;0.70;99.90
16271;DHT22;8243;49.048;8.396;2024-01-30T01:12:01;0.90;99.90
16271;DHT22;8243;49.048;8.396;2024-01-30T01:14:26;0.70;99.90
16271;DHT22;8243;49.048;8.396;2024-01-30T01:16:52;1.00;99.90
16271;DHT22;8243;49.048;8.396;2024-01-30T01:19:17;1.00;99.90
16271;DHT22;8243;49.048;8.396;2024-01-30T01:21:43;0.80;99.90
16271;DHT22;8243;49.048;8.396;2024-01-30T01:24:08;0.80;99.90
16271;DHT22;8243;49.048;8.396;2024-01-30T01:26:34;0.90;99.90
16271;DHT22;8243;49.048;8.396;2024-01-30T01:29:00;0.90;99.90
16271;DHT22;8243;49.048;8.396;2024-01-30T01:31:25;0.70;99.90
16271;DHT22;8243;49.048;8.396;2024-01-30T01:33:54;0.60;99.90
16271;DHT22;8243;49.048;8.396;2024-01-30T01:36:20;0.80;99.90
16271;DHT22;8243;49.048;8.396;2024-01-30T01:38:52;0.50;99.90
16271;DHT22;8243;49.048;8.396;2024-01-30T01:41:17;0.90;99.90
16271;DHT22;8243;49.048;8.396;2024-01-30T01:43:44;0.90;99.90
16271;DHT22;8243;49.048;8.396;2024-01-30T01:46:09;0.90;99.90
16271;DHT22;8243;49.048;8.396;2024-01-30T01:48:35;0.80;99.90
16271;DHT22;8243;49.048;8.396;2024-01-30T01:51:01;0.90;99.90
16271;DHT22;8243;49.048;8.396;2024-01-30T01:53:27;0.70;99.90
16271;DHT22;8243;49.048;8.396;2024-01-30T01:55:54;0.70;99.90
16271;DHT22;8243;49.048;8.396;2024-01-30T01:58:21;0.80;99.90
16271;DHT22;8243;49.048;8.396;2024-01-30T02:00:47;0.70;99.90
16271;DHT22;8243;49.048;8.396;2024-01-30T02:03:13;0.80;99.90
16271;DHT22;8243;49.048;8.396;2024-01-30T02:05:40;0.50;99.90
16271;DHT22;8243;49.048;8.396;2024-01-30T02:08:06;0.60;99.90
16271;DHT22;8243;49.048;8.396;2024-01-30T02:10:33;0.70;99.90
16271;DHT22;8243;49.048;8.396;2024-01-30T02:12:59;0.70;99.90
16271;DHT22;8243;49.048;8.396;2024-01-30T02:15:28;0.70;99.90
16271;DHT22;8243;49.048;8.396;2024-01-30T02:17:54;0.70;99.90
16271;DHT22;8243;49.048;8.396;2024-01-30T02:20:20;0.80;99.90
16271;DHT22;8243;49.048;8.396;2024-01-30T02:22:46;0.80;99.90
16271;DHT22;8243;49.048;8.396;2024-01-30T02:25:12;0.70;99.90
16271;DHT22;8243;49.048;8.396;2024-01-30T02:27:37;0.60;99.90
16271;DHT22;8243;49.048;8.396;2024-01-30T02:30:03;0.60;99.90
16271;DHT22;8243;49.048;8.396;2024-01-30T02:32:29;0.60;99.90
16271;DHT22;8243;49.048;8.396;2024-01-30T02:34:54;0.50;99.90
16271;DHT22;8243;49.048;8.396;2024-01-30T02:37:20;0.50;99.90
16271;DHT22;8243;49.048;8.396;2024-01-30T02:39:45;0.40;99.90
16271;DHT22;8243;49.048;8.396;2024-01-30T02:42:11;0.30;99.90
16271;DHT22;8243;49.048;8.396;2024-01-30T02:44:37;0.20;99.90
16271;DHT22;8243;49.048;8.396;2024-01-30T02:47:02;0.10;99.90
16271;DHT22;8243;49.048;8.396;2024-01-30T02:49:28;0.20;99.90
16271;DHT22;8243;49.048;8.396;2024-01-30T02:51:54;0.10;99.90
16271;DHT22;8243;49.048;8.396;2024-01-30T02:54:20;0.10;99.90
16271;DHT22;8243;49.048;8.396;2024-01-30T02:56:45;0.10;99.90
16271;DHT22;8243;49.048;8.396;2024-01-30T02:59:11;0.10;99.90
16271;DHT22;8243;49.048;8.396;2024-01-30T03:01:46;0.10;99.90
16271;DHT22;8243;49.048;8.396;2024-01-30T03:04:12;0.10;99.90
16271;DHT22;8243;49.048;8.396;2024-01-30T03:06:38;0.30;99.90
16271;DHT22;8243;49.048;8.396;2024-01-30T03:09:03;0.30;99.90
16271;DHT22;8243;49.048;8.396;2024-01-30T03:11:37;0.20;99.90
16271;DHT22;8243;49.048;8.396;2024-01-30T03:14:03;0.10;99.90
16271;DHT22;8243;49.048;8.396;2024-01-30T03:16:30;0.30;99.90
16271;DHT22;8243;49.048;8.396;2024-01-30T03:18:56;0.10;99.90
16271;DHT22;8243;49.048;8.396;2024-01-30T03:21:22;0.10;99.90
16271;DHT22;8243;49.048;8.396;2024-01-30T03:23:47;0.30;99.90
16271;DHT22;8243;49.048;8.396;2024-01-30T03:26:13;0.40;99.90
16271;DHT22;8243;49.048;8.396;2024-01-30T03:28:40;0.10;99.90
16271;DHT22;8243;49.048;8.396;2024-01-30T03:31:05;0.20;99.90
16271;DHT22;8243;49.048;8.396;2024-01-30T03:33:31;0.10;99.90
16271;DHT22;8243;49.048;8.396;2024-01-30T03:35:57;0.30;99.90
16271;DHT22;8243;49.048;8.396;2024-01-30T03:38:22;-0.10;99.90
16271;DHT22;8243;49.048;8.396;2024-01-30T03:40:48;0.00;99.90
16271;DHT22;8243;49.048;8.396;2024-01-30T03:43:13;0.30;99.90
16271;DHT22;8243;49.048;8.396;2024-01-30T03:45:39;0.30;99.90
16271;DHT22;8243;49.048;8.396;2024-01-30T03:48:05;0.30;99.90
16271;DHT22;8243;49.048;8.396;2024-01-30T03:50:30;0.20;99.90
16271;DHT22;8243;49.048;8.396;2024-01-30T03:52:56;0.30;99.90
16271;DHT22;8243;49.048;8.396;2024-01-30T03:55:21;0.10;99.90
16271;DHT22;8243;49.048;8.396;2024-01-30T03:57:47;0.00;99.90
16271;DHT22;8243;49.048;8.396;2024-01-30T04:00:14;0.00;99.90
16271;DHT22;8243;49.048;8.396;2024-01-30T04:02:39;-0.20;99.90
16271;DHT22;8243;49.048;8.396;2024-01-30T04:05:06;-0.10;99.90
16271;DHT22;8243;49.048;8.396;2024-01-30T04:07:31;0.10;99.90
16271;DHT22;8243;49.048;8.396;2024-01-30T04:09:57;-0.20;99.90
16271;DHT22;8243;49.048;8.396;2024-01-30T04:12:22;-0.10;99.90
16271;DHT22;8243;49.048;8.396;2024-01-30T04:14:48;0.00;99.90
16271;DHT22;8243;49.048;8.396;2024-01-30T04:17:13;-0.10;99.90
16271;DHT22;8243;49.048;8.396;2024-01-30T04:19:40;0.00;99.90
16271;DHT22;8243;49.048;8.396;2024-01-30T04:22:05;-0.10;99.90
16271;DHT22;8243;49.048;8.396;2024-01-30T04:24:31;-0.20;99.90
16271;DHT22;8243;49.048;8.396;2024-01-30T04:26:56;-0.20;99.90
16271;DHT22;8243;49.048;8.396;2024-01-30T04:29:22;-0.10;99.90
16271;DHT22;8243;49.048;8.396;2024-01-30T04:31:48;-0.20;99.90
16271;DHT22;8243;49.048;8.396;2024-01-30T04:34:13;-0.20;99.90
16271;DHT22;8243;49.048;8.396;2024-01-30T04:36:39;-0.10;99.90
16271;DHT22;8243;49.048;8.396;2024-01-30T04:39:05;0.00;99.90
16271;DHT22;8243;49.048;8.396;2024-01-30T04:41:30;-0.20;99.90
16271;DHT22;8243;49.048;8.396;2024-01-30T04:43:57;-0.10;99.90
16271;DHT22;8243;49.048;8.396;2024-01-30T04:46:23;0.10;99.90
16271;DHT22;8243;49.048;8.396;2024-01-30T04:48:48;-0.10;99.90
16271;DHT22;8243;49.048;8.396;2024-01-30T04:51:14;-0.20;99.90
16271;DHT22;8243;49.048;8.396;2024-01-30T04:53:39;0.00;99.90
16271;DHT22;8243;49.048;8.396;2024-01-30T04:56:05;-0.20;99.90
16271;DHT22;8243;49.048;8.396;2024-01-30T04:58:31;-0.10;99.90
16271;DHT22;8243;49.048;8.396;2024-01-30T05:00:56;-0.10;99.90
16271;DHT22;8243;49.048;8.396;2024-01-30T05:03:22;-0.10;99.90
16271;DHT22;8243;49.048;8.396;2024-01-30T05:05:49;-0.10;99.90
16271;DHT22;8243;49.048;8.396;2024-01-30T05:08:15;-0.20;99.90
16271;DHT22;8243;49.048;8.396;2024-01-30T05:10:40;-0.20;99.90
16271;DHT22;8243;49.048;8.396;2024-01-30T05:13:06;-0.10;99.90
16271;DHT22;8243;49.048;8.396;2024-01-30T05:15:31;0.00;99.90
16271;DHT22;8243;49.048;8.396;2024-01-30T05:17:57;0.10;99.90
16271;DHT22;8243;49.048;8.396;2024-01-30T05:20:22;0.00;99.90
16271;DHT22;8243;49.048;8.396;2024-01-30T05:22:48;0.10;99.90
16271;DHT22;8243;49.048;8.396;2024-01-30T05:25:13;0.00;99.90
16271;DHT22;8243;49.048;8.396;2024-01-30T05:27:39;0.00;99.90
16271;DHT22;8243;49.048;8.396;2024-01-30T05:30:06;-0.10;99.90
16271;DHT22;8243;49.048;8.396;2024-01-30T05:32:32;0.20;99.90
16271;DHT22;8243;49.048;8.396;2024-01-30T05:34:57;0.20;99.90
16271;DHT22;8243;49.048;8.396;2024-01-30T05:37:23;0.20;99.90
16271;DHT22;8243;49.048;8.396;2024-01-30T05:39:49;0.00;99.90
16271;DHT22;8243;49.048;8.396;2024-01-30T05:42:14;0.00;99.90
16271;DHT22;8243;49.048;8.396;2024-01-30T05:44:42;0.00;99.90
16271;DHT22;8243;49.048;8.396;2024-01-30T05:47:07;0.00;99.90
16271;DHT22;8243;49.048;8.396;2024-01-30T05:49:33;-0.10;99.90
16271;DHT22;8243;49.048;8.396;2024-01-30T05:51:58;-0.10;99.90
16271;DHT22;8243;49.048;8.396;2024-01-30T05:54:24;-0.20;99.90
16271;DHT22;8243;49.048;8.396;2024-01-30T05:56:49;-0.20;99.90
16271;DHT22;8243;49.048;8.396;2024-01-30T05:59:15;-0.30;99.90
16271;DHT22;8243;49.048;8.396;2024-01-30T06:01:47;-0.20;99.90
16271;DHT22;8243;49.048;8.396;2024-01-30T06:04:13;-0.20;99.90
16271;DHT22;8243;49.048;8.396;2024-01-30T06:06:39;-0.40;99.90
16271;DHT22;8243;49.048;8.396;2024-01-30T06:09:05;-0.10;99.90
16271;DHT22;8243;49.048;8.396;2024-01-30T06:11:30;-0.10;99.90
16271;DHT22;8243;49.048;8.396;2024-01-30T06:13:56;-0.10;99.90
16271;DHT22;8243;49.048;8.396;2024-01-30T06:16:22;-0.30;99.90
16271;DHT22;8243;49.048;8.396;2024-01-30T06:18:48;-0.20;99.90
16271;DHT22;8243;49.048;8.396;2024-01-30T06:21:13;-0.10;99.90
16271;DHT22;8243;49.048;8.396;2024-01-30T06:23:39;-0.10;99.90
16271;DHT22;8243;49.048;8.396;2024-01-30T06:26:06;-0.10;99.90
16271;DHT22;8243;49.048;8.396;2024-01-30T06:28:32;-0.20;99.90
16271;DHT22;8243;49.048;8.396;2024-01-30T06:30:57;-0.50;99.90
16271;DHT22;8243;49.048;8.396;2024-01-30T06:33:23;-0.40;99.90
16271;DHT22;8243;49.048;8.396;2024-01-30T06:35:49;-0.20;99.90
16271;DHT22;8243;49.048;8.396;2024-01-30T06:38:14;-0.10;99.90
16271;DHT22;8243;49.048;8.396;2024-01-30T06:40:41;-0.10;99.90
16271;DHT22;8243;49.048;8.396;2024-01-30T06:43:07;-0.30;99.90
16271;DHT22;8243;49.048;8.396;2024-01-30T06:45:33;-0.30;99.90
16271;DHT22;8243;49.048;8.396;2024-01-30T06:48:00;-0.20;99.90
16271;DHT22;8243;49.048;8.396;2024-01-30T06:50:32;0.00;99.90
16271;DHT22;8243;49.048;8.396;2024-01-30T06:52:58;-0.10;99.90
16271;DHT22;8243;49.048;8.396;2024-01-30T06:55:24;-0.40;99.90
16271;DHT22;8243;49.048;8.396;2024-01-30T06:57:49;-0.10;99.90
16271;DHT22;8243;49.048;8.396;2024-01-30T07:00:15;0.00;99.90
16271;DHT22;8243;49.048;8.396;2024-01-30T07:02:41;-0.20;99.90
16271;DHT22;8243;49.048;8.396;2024-01-30T07:05:07;-0.20;99.90
16271;DHT22;8243;49.048;8.396;2024-01-30T07:07:33;-0.10;99.90
16271;DHT22;8243;49.048;8.396;2024-01-30T07:10:15;-0.30;99.90
16271;DHT22;8243;49.048;8.396;2024-01-30T07:12:41;-0.30;99.90
16271;DHT22;8243;49.048;8.396;2024-01-30T07:15:08;-0.20;99.90
16271;DHT22;8243;49.048;8.396;2024-01-30T07:17:35;0.10;99.90
16271;DHT22;8243;49.048;8.396;2024-01-30T07:20:01;0.00;99.90
16271;DHT22;8243;49.048;8.396;2024-01-30T07:22:29;0.10;99.90
16271;DHT22;8243;49.048;8.396;2024-01-30T07:24:55;0.10;99.90
16271;DHT22;8243;49.048;8.396;2024-01-30T07:27:21;0.20;99.90
16271;DHT22;8243;49.048;8.396;2024-01-30T07:29:47;0.10;99.90
16271;DHT22;8243;49.048;8.396;2024-01-30T07:32:12;0.20;99.90
16271;DHT22;8243;49.048;8.396;2024-01-30T07:34:38;0.20;99.90
16271;DHT22;8243;49.048;8.396;2024-01-30T07:37:03;0.10;99.90
16271;DHT22;8243;49.048;8.396;2024-01-30T07:39:29;0.40;99.90
16271;DHT22;8243;49.048;8.396;2024-01-30T07:41:54;0.60;99.90
16271;DHT22;8243;49.048;8.396;2024-01-30T07:44:20;0.80;99.90
16271;DHT22;8243;49.048;8.396;2024-01-30T07:46:46;1.00;99.90
16271;DHT22;8243;49.048;8.396;2024-01-30T07:49:12;1.20;99.90
16271;DHT22;8243;49.048;8.396;2024-01-30T07:51:39;1.20;99.90
16271;DHT22;8243;49.048;8.396;2024-01-30T07:54:05;1.60;99.90
16271;DHT22;8243;49.048;8.396;2024-01-30T07:56:30;1.90;99.90
16271;DHT22;8243;49.048;8.396;2024-01-30T07:58:56;2.10;99.90
16271;DHT22;8243;49.048;8.396;2024-01-30T08:01:21;2.40;99.90
16271;DHT22;8243;49.048;8.396;2024-01-30T08:03:47;2.50;99.90
16271;DHT22;8243;49.048;8.396;2024-01-30T08:06:12;2.70;99.90
16271;DHT22;8243;49.048;8.396;2024-01-30T08:08:38;2.90;99.90
16271;DHT22;8243;49.048;8.396;2024-01-30T08:11:04;3.00;99.90
16271;DHT22;8243;49.048;8.396;2024-01-30T08:13:29;3.10;99.90
16271;DHT22;8243;49.048;8.396;2024-01-30T08:15:55;3.20;99.90
16271;DHT22;8243;49.048;8.396;2024-01-30T08:18:20;3.30;99.90
16271;DHT22;8243;49.048;8.396;2024-01-30T08:20:46;4.10;99.90
16271;DHT22;8243;49.048;8.396;2024-01-30T08:23:12;4.40;99.90
16271;DHT22;8243;49.048;8.396;2024-01-30T08:25:38;4.90;99.90
16271;DHT22;8243;49.048;8.396;2024-01-30T08:28:04;5.70;99.90
16271;DHT22;8243;49.048;8.396;2024-01-30T08:30:30;6.40;99.90
16271;DHT22;8243;49.048;8.396;2024-01-30T08:32:55;6.50;99.90
16271;DHT22;8243;49.048;8.396;2024-01-30T08:35:21;6.70;99.90
16271;DHT22;8243;49.048;8.396;2024-01-30T08:37:46;6.70;99.90
16271;DHT22;8243;49.048;8.396;2024-01-30T08:40:12;6.60;99.90
16271;DHT22;8243;49.048;8.396;2024-01-30T08:42:37;6.40;99.90
16271;DHT22;8243;49.048;8.396;2024-01-30T08:45:04;6.20;99.90
16271;DHT22;8243;49.048;8.396;2024-01-30T08:47:30;5.90;99.90
16271;DHT22;8243;49.048;8.396;2024-01-30T08:49:56;5.70;99.90
16271;DHT22;8243;49.048;8.396;2024-01-30T08:52:21;5.40;99.90
16271;DHT22;8243;49.048;8.396;2024-01-30T08:54:47;5.50;99.90
16271;DHT22;8243;49.048;8.396;2024-01-30T08:57:12;5.50;99.90
16271;DHT22;8243;49.048;8.396;2024-01-30T08:59:38;5.30;99.90
16271;DHT22;8243;49.048;8.396;2024-01-30T09:02:03;5.20;99.90
16271;DHT22;8243;49.048;8.396;2024-01-30T09:04:30;5.20;99.90
16271;DHT22;8243;49.048;8.396;2024-01-30T09:06:56;5.10;99.90
16271;DHT22;8243;49.048;8.396;2024-01-30T09:09:21;5.20;99.90
16271;DHT22;8243;49.048;8.396;2024-01-30T09:11:47;5.10;99.90
16271;DHT22;8243;49.048;8.396;2024-01-30T09:14:12;5.10;99.90
16271;DHT22;8243;49.048;8.396;2024-01-30T09:16:38;5.30;99.90
16271;DHT22;8243;49.048;8.396;2024-01-30T09:19:04;5.40;99.90
16271;DHT22;8243;49.048;8.396;2024-01-30T09:21:31;5.50;99.90
16271;DHT22;8243;49.048;8.396;2024-01-30T09:24:02;5.60;99.90
16271;DHT22;8243;49.048;8.396;2024-01-30T09:26:31;5.50;99.90
16271;DHT22;8243;49.048;8.396;2024-01-30T09:28:57;5.70;99.90
16271;DHT22;8243;49.048;8.396;2024-01-30T09:31:22;5.90;99.90
16271;DHT22;8243;49.048;8.396;2024-01-30T09:33:48;6.10;99.90
16271;DHT22;8243;49.048;8.396;2024-01-30T09:36:16;6.30;99.90
16271;DHT22;8243;49.048;8.396;2024-01-30T09:38:43;6.30;99.90
16271;DHT22;8243;49.048;8.396;2024-01-30T09:41:10;6.20;99.90
16271;DHT22;8243;49.048;8.396;2024-01-30T09:43:37;6.30;99.90
16271;DHT22;8243;49.048;8.396;2024-01-30T09:46:04;6.50;99.90
16271;DHT22;8243;49.048;8.396;2024-01-30T09:48:32;6.70;99.90
16271;DHT22;8243;49.048;8.396;2024-01-30T09:50:59;6.90;99.90
16271;DHT22;8243;49.048;8.396;2024-01-30T09:53:25;7.00;99.90
16271;DHT22;8243;49.048;8.396;2024-01-30T09:55:51;7.20;99.90
16271;DHT22;8243;49.048;8.396;2024-01-30T09:58:16;7.40;99.90
16271;DHT22;8243;49.048;8.396;2024-01-30T10:00:42;7.60;99.90
16271;DHT22;8243;49.048;8.396;2024-01-30T10:03:08;7.80;99.90
16271;DHT22;8243;49.048;8.396;2024-01-30T10:05:35;8.10;98.60
16271;DHT22;8243;49.048;8.396;2024-01-30T10:08:06;8.20;95.80
16271;DHT22;8243;49.048;8.396;2024-01-30T10:10:32;8.10;94.10
16271;DHT22;8243;49.048;8.396;2024-01-30T10:12:57;8.30;95.20
16271;DHT22;8243;49.048;8.396;2024-01-30T10:15:24;8.60;94.30
16271;DHT22;8243;49.048;8.396;2024-01-30T10:17:53;8.80;93.50
16271;DHT22;8243;49.048;8.396;2024-01-30T10:20:19;8.90;91.60
16271;DHT22;8243;49.048;8.396;2024-01-30T10:22:45;8.90;88.90
16271;DHT22;8243;49.048;8.396;2024-01-30T10:25:11;8.90;89.60
16271;DHT22;8243;49.048;8.396;2024-01-30T10:27:39;8.80;86.70
16271;DHT22;8243;49.048;8.396;2024-01-30T10:30:05;8.80;82.60
16271;DHT22;8243;49.048;8.396;2024-01-30T10:32:31;9.00;84.40
16271;DHT22;8243;49.048;8.396;2024-01-30T10:34:56;9.00;84.10
16271;DHT22;8243;49.048;8.396;2024-01-30T10:37:25;8.90;79.00
16271;DHT22;8243;49.048;8.396;2024-01-30T10:39:53;8.90;80.70
16271;DHT22;8243;49.048;8.396;2024-01-30T10:42:19;9.00;79.10
16271;DHT22;8243;49.048;8.396;2024-01-30T10:45:00;9.00;77.20
16271;DHT22;8243;49.048;8.396;2024-01-30T10:47:29;9.20;77.00
16271;DHT22;8243;49.048;8.396;2024-01-30T10:49:55;9.20;73.80
16271;DHT22;8243;49.048;8.396;2024-01-30T10:52:23;9.10;73.00
16271;DHT22;8243;49.048;8.396;2024-01-30T10:54:50;9.30;72.90
16271;DHT22;8243;49.048;8.396;2024-01-30T10:57:17;9.30;71.30
16271;DHT22;8243;49.048;8.396;2024-01-30T10:59:43;9.30;68.80
16271;DHT22;8243;49.048;8.396;2024-01-30T11:02:10;9.50;68.40
16271;DHT22;8243;49.048;8.396;2024-01-30T11:04:41;9.50;66.60
16271;DHT22;8243;49.048;8.396;2024-01-30T11:07:24;9.50;65.80
16271;DHT22;8243;49.048;8.396;2024-01-30T11:09:53;9.40;64.70
16271;DHT22;8243;49.048;8.396;2024-01-30T11:12:26;9.60;65.00
16271;DHT22;8243;49.048;8.396;2024-01-30T11:15:13;9.60;61.40
16271;DHT22;8243;49.048;8.396;2024-01-30T11:17:43;9.70;62.40
16271;DHT22;8243;49.048;8.396;2024-01-30T11:20:19;9.80;61.00
16271;DHT22;8243;49.048;8.396;2024-01-30T11:22:46;10.00;60.70
16271;DHT22;8243;49.048;8.396;2024-01-30T11:25:17;10.20;58.00
16271;DHT22;8243;49.048;8.396;2024-01-30T11:27:44;10.40;56.60
16271;DHT22;8243;49.048;8.396;2024-01-30T11:30:10;10.50;55.10
16271;DHT22;8243;49.048;8.396;2024-01-30T11:32:36;10.60;52.50
16271;DHT22;8243;49.048;8.396;2024-01-30T11:35:06;10.90;50.30
16271;DHT22;8243;49.048;8.396;2024-01-30T11:37:32;11.00;50.60
16271;DHT22;8243;49.048;8.396;2024-01-30T11:39:58;11.10;49.80
16271;DHT22;8243;49.048;8.396;2024-01-30T11:42:24;11.10;47.10
16271;DHT22;8243;49.048;8.396;2024-01-30T11:44:53;11.40;47.20
16271;DHT22;8243;49.048;8.396;2024-01-30T11:47:19;11.60;45.80
16271;DHT22;8243;49.048;8.396;2024-01-30T11:49:45;11.80;44.00
16271;DHT22;8243;49.048;8.396;2024-01-30T11:52:13;11.90;42.00
16271;DHT22;8243;49.048;8.396;2024-01-30T11:54:42;11.80;40.90
16271;DHT22;8243;49.048;8.396;2024-01-30T11:57:08;12.10;40.10
16271;DHT22;8243;49.048;8.396;2024-01-30T11:59:34;11.80;40.20
16271;DHT22;8243;49.048;8.396;2024-01-30T12:01:59;11.90;40.10
16271;DHT22;8243;49.048;8.396;2024-01-30T12:04:28;11.90;38.80
16271;DHT22;8243;49.048;8.396;2024-01-30T12:06:54;12.10;39.00
16271;DHT22;8243;49.048;8.396;2024-01-30T12:09:20;12.00;38.10
16271;DHT22;8243;49.048;8.396;2024-01-30T12:11:49;11.90;37.20
16271;DHT22;8243;49.048;8.396;2024-01-30T12:14:17;11.80;37.20
16271;DHT22;8243;49.048;8.396;2024-01-30T12:16:48;11.90;37.30
16271;DHT22;8243;49.048;8.396;2024-01-30T12:19:22;11.80;36.80
16271;DHT22;8243;49.048;8.396;2024-01-30T12:21:47;11.80;36.80
16271;DHT22;8243;49.048;8.396;2024-01-30T12:24:18;11.80;37.10
16271;DHT22;8243;49.048;8.396;2024-01-30T12:26:44;11.90;36.70
16271;DHT22;8243;49.048;8.396;2024-01-30T12:29:09;11.90;37.10
16271;DHT22;8243;49.048;8.396;2024-01-30T12:31:35;11.90;36.90
16271;DHT22;8243;49.048;8.396;2024-01-30T12:34:01;11.80;36.80
16271;DHT22;8243;49.048;8.396;2024-01-30T12:36:28;12.10;37.60
16271;DHT22;8243;49.048;8.396;2024-01-30T12:38:56;12.30;36.50
16271;DHT22;8243;49.048;8.396;2024-01-30T12:41:23;12.20;35.70
16271;DHT22;8243;49.048;8.396;2024-01-30T12:43:53;12.20;35.50
16271;DHT22;8243;49.048;8.396;2024-01-30T12:46:19;12.00;36.30
16271;DHT22;8243;49.048;8.396;2024-01-30T12:48:45;11.90;36.30
16271;DHT22;8243;49.048;8.396;2024-01-30T12:51:10;12.00;36.10
16271;DHT22;8243;49.048;8.396;2024-01-30T12:53:36;11.90;35.70
16271;DHT22;8243;49.048;8.396;2024-01-30T12:56:02;11.90;35.90
16271;DHT22;8243;49.048;8.396;2024-01-30T12:58:28;11.80;36.10
16271;DHT22;8243;49.048;8.396;2024-01-30T13:00:54;11.80;36.00
16271;DHT22;8243;49.048;8.396;2024-01-30T13:03:20;11.80;35.40
16271;DHT22;8243;49.048;8.396;2024-01-30T13:05:45;11.70;36.00
16271;DHT22;8243;49.048;8.396;2024-01-30T13:08:11;11.90;36.60
16271;DHT22;8243;49.048;8.396;2024-01-30T13:10:36;11.90;36.60
16271;DHT22;8243;49.048;8.396;2024-01-30T13:13:02;12.00;35.60
16271;DHT22;8243;49.048;8.396;2024-01-30T13:15:28;12.10;35.30
16271;DHT22;8243;49.048;8.396;2024-01-30T13:17:53;12.10;35.40
16271;DHT22;8243;49.048;8.396;2024-01-30T13:20:19;12.30;35.70
16271;DHT22;8243;49.048;8.396;2024-01-30T13:22:47;12.30;35.40
16271;DHT22;8243;49.048;8.396;2024-01-30T13:25:14;12.40;34.80
16271;DHT22;8243;49.048;8.396;2024-01-30T13:27:41;12.40;34.50
16271;DHT22;8243;49.048;8.396;2024-01-30T13:30:07;12.30;34.90
16271;DHT22;8243;49.048;8.396;2024-01-30T13:32:33;12.20;34.80
16271;DHT22;8243;49.048;8.396;2024-01-30T13:34:59;12.10;35.30
16271;DHT22;8243;49.048;8.396;2024-01-30T13:37:24;11.90;36.10
16271;DHT22;8243;49.048;8.396;2024-01-30T13:39:50;11.80;36.50
16271;DHT22;8243;49.048;8.396;2024-01-30T13:42:16;11.80;37.30
16271;DHT22;8243;49.048;8.396;2024-01-30T13:44:41;11.90;37.60
16271;DHT22;8243;49.048;8.396;2024-01-30T13:47:09;11.90;37.80
16271;DHT22;8243;49.048;8.396;2024-01-30T13:49:35;11.90;37.60
16271;DHT22;8243;49.048;8.396;2024-01-30T13:52:00;12.00;37.90
16271;DHT22;8243;49.048;8.396;2024-01-30T13:54:26;12.00;38.00
16271;DHT22;8243;49.048;8.396;2024-01-30T13:56:51;12.00;38.60
16271;DHT22;8243;49.048;8.396;2024-01-30T13:59:17;12.00;37.20
16271;DHT22;8243;49.048;8.396;2024-01-30T14:01:48;12.10;37.60
16271;DHT22;8243;49.048;8.396;2024-01-30T14:04:17;12.10;37.80
16271;DHT22;8243;49.048;8.396;2024-01-30T14:06:43;12.20;38.00
16271;DHT22;8243;49.048;8.396;2024-01-30T14:09:08;12.20;37.70
16271;DHT22;8243;49.048;8.396;2024-01-30T14:11:35;12.30;37.90
16271;DHT22;8243;49.048;8.396;2024-01-30T14:14:01;12.30;37.50
16271;DHT22;8243;49.048;8.396;2024-01-30T14:16:26;12.40;37.50
16271;DHT22;8243;49.048;8.396;2024-01-30T14:18:52;12.30;37.00
16271;DHT22;8243;49.048;8.396;2024-01-30T14:21:17;12.20;37.80
16271;DHT22;8243;49.048;8.396;2024-01-30T14:23:43;12.20;37.60
16271;DHT22;8243;49.048;8.396;2024-01-30T14:26:08;12.20;37.60
16271;DHT22;8243;49.048;8.396;2024-01-30T14:28:34;12.20;37.50
16271;DHT22;8243;49.048;8.396;2024-01-30T14:31:00;12.20;38.60
16271;DHT22;8243;49.048;8.396;2024-01-30T14:33:25;12.20;38.00
16271;DHT22;8243;49.048;8.396;2024-01-30T14:35:51;12.10;39.00
16271;DHT22;8243;49.048;8.396;2024-01-30T14:38:16;12.10;39.00
16271;DHT22;8243;49.048;8.396;2024-01-30T14:40:42;12.00;38.90
16271;DHT22;8243;49.048;8.396;2024-01-30T14:43:08;11.90;39.70
16271;DHT22;8243;49.048;8.396;2024-01-30T14:45:33;11.90;40.10
16271;DHT22;8243;49.048;8.396;2024-01-30T14:47:59;11.80;40.10
16271;DHT22;8243;49.048;8.396;2024-01-30T14:50:25;11.80;40.60
16271;DHT22;8243;49.048;8.396;2024-01-30T14:52:51;11.70;40.90
16271;DHT22;8243;49.048;8.396;2024-01-30T14:55:17;11.70;41.60
16271;DHT22;8243;49.048;8.396;2024-01-30T14:57:43;11.70;42.10
16271;DHT22;8243;49.048;8.396;2024-01-30T15:00:11;11.60;42.30
16271;DHT22;8243;49.048;8.396;2024-01-30T15:02:37;11.50;43.00
16271;DHT22;8243;49.048;8.396;2024-01-30T15:05:02;11.40;43.40
16271;DHT22;8243;49.048;8.396;2024-01-30T15:07:28;11.30;44.30
16271;DHT22;8243;49.048;8.396;2024-01-30T15:09:54;11.30;44.70
16271;DHT22;8243;49.048;8.396;2024-01-30T15:12:19;11.40;45.30
16271;DHT22;8243;49.048;8.396;2024-01-30T15:14:45;11.30;45.80
16271;DHT22;8243;49.048;8.396;2024-01-30T15:17:17;11.20;46.80
16271;DHT22;8243;49.048;8.396;2024-01-30T15:19:43;11.20;48.00
16271;DHT22;8243;49.048;8.396;2024-01-30T15:22:08;11.10;49.20
16271;DHT22;8243;49.048;8.396;2024-01-30T15:24:34;11.00;50.00
16271;DHT22;8243;49.048;8.396;2024-01-30T15:26:59;10.90;50.80
16271;DHT22;8243;49.048;8.396;2024-01-30T15:29:26;10.90;51.90
16271;DHT22;8243;49.048;8.396;2024-01-30T15:31:51;10.80;52.00
16271;DHT22;8243;49.048;8.396;2024-01-30T15:34:17;10.80;52.80
16271;DHT22;8243;49.048;8.396;2024-01-30T15:36:42;10.80;53.60
16271;DHT22;8243;49.048;8.396;2024-01-30T15:39:08;10.80;54.20
16271;DHT22;8243;49.048;8.396;2024-01-30T15:41:35;10.70;54.80
16271;DHT22;8243;49.048;8.396;2024-01-30T15:44:01;10.70;56.00
16271;DHT22;8243;49.048;8.396;2024-01-30T15:46:28;10.60;56.70
16271;DHT22;8243;49.048;8.396;2024-01-30T15:48:53;10.60;57.50